Laughlin, Nevada
Current Conditions -  °F | °C
As of 10:15 PM on Sunday 25 Jan 2015 (Local Time) from KIFP Reporting Station
Clear Clear  
Wind Chill: 68°   Ceiling: Unl
Heat Index: 68°   Visibility: 10mi
Dew Point: 32°   Wind: 12mph
Humidity: 26%   Direction: 30°NNE
Pressure: 30.1"   Gusts: NA
Location:  35.15°N, 114.63°W
Report Text: KIFP 260615Z AUTO 03010KT 10SM CLR 20/00 A3010 RMK AO2 PWINO
Loading
Personal Weather Stations






























Interactive Weather Map New forecast layout! Learn more

10-Day Weather Forecast

Advertisements
Track Severe Weather on mobile